Coffeen, IL (62017)

7:29 PM CDT on March 29, 2015 (GMT -0500)
Eckcellent Karaoke | | Change Station
CLOSE
Current Station
Personal Weather Station
Location: Hillsboro, IL
Elevation: 614 ft
Nearby Weather Stations

Elev 614 ft 39.16 °N, 89.50 °W | Updated 4 seconds ago

Partly Cloudy
Partly Cloudy
52.1 °F
Feels Like 52.1 °F
N
0.0
Wind Variable Wind from West
Gusts 2.0 mph

Today
High -- | Low -- °F
--% Chance of Precip.
Yesterday
High -- | Low -- °F
Precip. -- in
6:47 AM 7:18 PM
Waxing Gibbous, 75% visible
Pressure 29.95 in
Visibility 10.0 miles
Clouds Clear
Dew Point 42 °F
Humidity 69%
Rainfall 0.00 in
Snow Depth Not available.
UV 0 out of 12
Pollen 5.30 out of 12
Air Quality Not available.
Flu Activity Not available.
METAR K3LF 300015Z AUTO 25008KT 10SM CLR 11/05 A2995 RMK AO2 T01050045

More Conditions Fewer Conditions

Pressure 29.95 in
Visibility 10.0 miles
Clouds Clear
Dew Point 42 °F
Humidity 69%
Rainfall 0.00 in
Snow Depth Not available.
UV 0 out of 12
Pollen 5.30 out of 12
Air Quality Not available.
Flu Activity Not available.
METAR K3LF 300015Z AUTO 25008KT 10SM CLR 11/05 A2995 RMK AO2 T01050045

More Conditions Fewer Conditions

10-Day Weather Forecast

Almanac

Astronomy

Mar. 29, 2015 Rise Set
Actual Time
Civil Twilight
Nautical Twilight
Astronomical Twilight
Moon
Length of Visible Light
Length of Day
Tomorrow will be .
, % of the Moon is Illuminated

Today's Extremes

State Highs State Lows

Community

WunderPhotos

Upload Photos

1,809,386 photos uploaded!

WunderBlogs® & News

Nearby

Air Quality

  Air Quality AQ Index Pollutant
Not available.

Snow Depth

Station Depth Elevation

Earthquake Activity

City Distance Mag. Time & Date
Minimum magnitude displayed is 2.5.

Coastal Water Temperatures

Place Temperature

Stations

Nearby Weather Stations

Station Location Temp. Windchill Dew Point Humidity Wind Precip. Elev Updated Type